Time;durP1;ratioP1;P1;durP2;ratioP2;P2;SDS_P1;SDS_P2;PMS_P1;PMS_P2;Temp;Humidity;BMP_temperature;BMP_pressure;BME280_temperature;BME280_humidity;BME280_pressure;Samples;Min_cycle;Max_cycle;Signal;HPM_P1;HPM_P2
2021/04/30 00:00:09;;;;;;;4.00;3.60;;;13.00;38.20;;;;;;6131487;23;20639;-89
2021/04/30 00:02:38;;;;;;;5.53;5.00;;;13.10;38.10;;;;;;6131984;23;20731;-89
2021/04/30 00:05:05;;;;;;;6.05;5.55;;;13.00;37.60;;;;;;6131703;23;20160;-89
2021/04/30 00:07:31;;;;;;;5.22;4.82;;;13.20;34.80;;;;;;6131601;23;20160;-87
2021/04/30 00:09:58;;;;;;;4.67;4.30;;;13.20;35.50;;;;;;6131287;23;20230;-89
2021/04/30 00:12:23;;;;;;;5.00;4.60;;;13.00;36.70;;;;;;6131646;23;20159;-89
2021/04/30 00:14:55;;;;;;;6.07;5.50;;;13.00;36.30;;;;;;6131409;23;20206;-89
2021/04/30 00:17:21;;;;;;;5.63;5.00;;;13.00;35.00;;;;;;6131150;23;20159;-89
2021/04/30 00:19:49;;;;;;;6.33;5.73;;;13.20;35.20;;;;;;6131711;23;20571;-89
2021/04/30 00:22:14;;;;;;;6.05;5.55;;;13.00;34.70;;;;;;6131471;23;20160;-89
2021/04/30 00:25:09;;;;;;;5.20;4.77;;;12.80;36.10;;;;;;6131732;23;20159;-89
2021/04/30 00:27:34;;;;;;;5.45;4.95;;;13.00;36.60;;;;;;6132406;23;20610;-89
2021/04/30 00:30:00;;;;;;;4.70;4.30;;;13.00;37.40;;;;;;6131624;23;20155;-88
2021/04/30 00:32:33;;;;;;;5.77;5.37;;;13.00;37.50;;;;;;6131934;23;20180;-89
2021/04/30 00:35:03;;;;;;;5.70;5.30;;;13.20;36.40;;;;;;6131592;23;20163;-89
2021/04/30 00:37:48;;;;;;;5.63;5.13;;;13.10;36.70;;;;;;6131777;23;20463;-89
2021/04/30 00:40:14;;;;;;;6.55;6.03;;;13.10;36.90;;;;;;6131733;23;20382;-89
2021/04/30 00:42:53;;;;;;;7.33;5.53;;;13.30;37.40;;;;;;6131297;23;20152;-89
2021/04/30 00:45:19;;;;;;;5.22;4.82;;;13.60;37.50;;;;;;6131779;23;20195;-89
2021/04/30 00:47:47;;;;;;;6.45;5.88;;;13.50;37.50;;;;;;6131349;23;20156;-89
2021/04/30 00:50:34;;;;;;;6.25;5.75;;;13.40;39.30;;;;;;6131223;23;20196;-90
2021/04/30 00:53:00;;;;;;;7.95;5.95;;;13.40;39.30;;;;;;6131352;23;20148;-89
2021/04/30 00:55:38;;;;;;;6.77;6.27;;;13.30;39.10;;;;;;6131182;23;20182;-90
2021/04/30 00:58:04;;;;;;;6.70;6.20;;;13.10;39.10;;;;;;6132632;23;20485;-89
2021/04/30 01:00:32;;;;;;;6.25;5.70;;;12.90;39.10;;;;;;6132096;23;20373;-90
2021/04/30 01:02:58;;;;;;;7.13;6.60;;;13.40;39.60;;;;;;6132520;23;20175;-89
2021/04/30 01:05:46;;;;;;;6.45;5.93;;;13.30;40.20;;;;;;6132223;23;20490;-89
2021/04/30 01:08:12;;;;;;;8.15;7.43;;;13.30;40.20;;;;;;6134416;23;20163;-89
2021/04/30 01:10:51;;;;;;;8.13;7.43;;;13.50;38.10;;;;;;6134289;23;20156;-95
2021/04/30 01:13:17;;;;;;;7.75;7.07;;;13.40;38.60;;;;;;6135887;23;20238;-92
2021/04/30 01:16:27;;;;;;;8.00;7.40;;;13.30;39.30;;;;;;6134903;23;20555;-87
2021/04/30 01:18:53;;;;;;;8.13;7.00;;;13.40;40.20;;;;;;6133372;23;20171;-90
2021/04/30 01:21:39;;;;;;;7.80;7.10;;;13.30;39.50;;;;;;6136362;23;20866;-95
2021/04/30 01:24:05;;;;;;;8.00;7.30;;;13.50;40.50;;;;;;6135564;23;20555;-89
2021/04/30 01:27:13;;;;;;;7.40;6.80;;;13.30;41.80;;;;;;6160502;23;20371;-94
2021/04/30 01:29:39;;;;;;;7.20;6.60;;;13.30;41.50;;;;;;6133043;23;20479;-88
2021/04/30 01:32:06;;;;;;;7.73;7.03;;;13.30;41.10;;;;;;6159343;23;20188;-90
2021/04/30 01:34:32;;;;;;;7.20;6.63;;;13.40;41.40;;;;;;6135259;23;20148;-93
2021/04/30 01:36:57;;;;;;;7.70;7.00;;;13.30;41.50;;;;;;6135794;23;20670;-91
2021/04/30 01:39:23;;;;;;;8.07;7.37;;;13.00;41.40;;;;;;6133958;23;20158;-89
2021/04/30 01:41:49;;;;;;;8.33;7.53;;;13.10;40.30;;;;;;6135922;23;20572;-95
2021/04/30 01:44:40;;;;;;;8.17;7.47;;;13.30;41.20;;;;;;6137889;23;20132;-93
2021/04/30 01:47:09;;;;;;;8.45;7.75;;;13.20;40.90;;;;;;6135161;23;20179;-94
2021/04/30 01:49:35;;;;;;;8.55;7.80;;;13.40;41.90;;;;;;6136773;23;20264;-92
2021/04/30 01:55:28;;;;;;;8.20;7.50;;;13.40;41.00;;;;;;6162796;23;20210;-88
2021/04/30 01:58:02;;;;;;;10.00;7.90;;;13.40;41.10;;;;;;6136866;23;20379;-88
2021/04/30 02:00:28;;;;;;;8.70;8.00;;;13.20;41.40;;;;;;6136423;23;20398;-89
2021/04/30 02:03:06;;;;;;;11.20;9.47;;;13.30;41.80;;;;;;6136063;23;20575;-89
2021/04/30 02:05:33;;;;;;;10.77;9.85;;;13.20;42.30;;;;;;6134703;23;20155;-89
2021/04/30 02:08:13;;;;;;;9.20;8.50;;;13.00;42.60;;;;;;6133818;23;20163;-89
2021/04/30 02:10:43;;;;;;;11.27;8.93;;;13.00;43.40;;;;;;6133780;23;20210;-89
2021/04/30 02:13:09;;;;;;;10.05;9.15;;;13.00;43.60;;;;;;6133394;23;20214;-89
2021/04/30 02:16:12;;;;;;;10.40;9.50;;;13.00;44.40;;;;;;6133427;23;20179;-89
2021/04/30 02:18:38;;;;;;;9.63;8.82;;;12.90;44.10;;;;;;6133243;23;20148;-89
2021/04/30 02:21:04;;;;;;;11.00;10.10;;;12.90;44.20;;;;;;6133857;23;20277;-89
2021/04/30 02:23:36;;;;;;;11.30;10.23;;;13.00;44.80;;;;;;6133211;23;20156;-89
2021/04/30 02:26:02;;;;;;;10.38;9.48;;;12.90;44.60;;;;;;6133282;23;20379;-90
2021/04/30 02:28:27;;;;;;;8.57;7.73;;;13.00;44.80;;;;;;6133143;23;20226;-89
2021/04/30 02:30:54;;;;;;;11.90;10.90;;;12.90;44.80;;;;;;6133677;23;20156;-89
2021/04/30 02:33:20;;;;;;;10.70;9.80;;;13.00;45.50;;;;;;6134214;23;20166;-89
2021/04/30 02:36:14;;;;;;;11.50;10.53;;;13.10;45.90;;;;;;6134053;23;20184;-90
2021/04/30 02:38:39;;;;;;;11.15;10.15;;;12.50;46.10;;;;;;6133930;23;20491;-88
2021/04/30 02:41:06;;;;;;;11.07;10.03;;;12.30;47.50;;;;;;6159567;23;20140;-90
2021/04/30 02:43:32;;;;;;;11.65;10.65;;;11.90;47.90;;;;;;6133360;23;20152;-89
2021/04/30 02:46:00;;;;;;;13.17;12.00;;;12.00;48.00;;;;;;6133567;23;20602;-90
2021/04/30 02:48:32;;;;;;;13.82;12.65;;;11.90;48.70;;;;;;6133185;23;20162;-89
2021/04/30 02:51:00;;;;;;;11.70;10.57;;;12.00;48.20;;;;;;6127639;23;20639;-88
2021/04/30 02:53:26;;;;;;;12.00;10.90;;;11.80;48.30;;;;;;6103417;23;20159;-88
2021/04/30 02:55:52;;;;;;;11.50;10.50;;;11.90;47.60;;;;;;6103501;23;20227;-89
2021/04/30 02:58:18;;;;;;;12.38;11.23;;;11.90;48.50;;;;;;6104216;23;20190;-89
2021/04/30 03:00:44;;;;;;;12.40;11.20;;;11.90;47.80;;;;;;6103824;23;20145;-89
2021/04/30 03:03:38;;;;;;;13.07;11.97;;;12.10;48.30;;;;;;6104903;23;20198;-88
2021/04/30 03:06:03;;;;;;;12.77;11.57;;;12.00;47.70;;;;;;6104469;23;20157;-89
2021/04/30 03:08:29;;;;;;;12.23;10.87;;;11.90;47.50;;;;;;6103980;23;20152;-87
2021/04/30 03:10:55;;;;;;;10.73;9.73;;;12.60;47.00;;;;;;6103319;23;20176;-89
2021/04/30 03:13:21;;;;;;;12.20;11.10;;;12.10;46.40;;;;;;6103281;23;20385;-86
2021/04/30 03:15:49;;;;;;;11.00;10.07;;;12.50;47.10;;;;;;6102943;23;20184;-86
2021/04/30 03:18:14;;;;;;;13.65;12.43;;;12.20;46.90;;;;;;6130876;23;20144;-94
2021/04/30 03:20:47;;;;;;;12.60;11.40;;;12.00;47.50;;;;;;6108465;23;20568;-94
2021/04/30 03:23:13;;;;;;;12.70;11.50;;;12.20;47.50;;;;;;6107677;23;20612;-94
2021/04/30 03:25:40;;;;;;;11.03;10.03;;;12.20;47.70;;;;;;6106962;23;20148;-94
2021/04/30 03:28:05;;;;;;;12.07;11.02;;;12.40;47.80;;;;;;6106883;23;20152;-94
2021/04/30 03:30:31;;;;;;;12.23;11.10;;;12.50;47.80;;;;;;6106009;23;20159;-94
2021/04/30 03:32:59;;;;;;;12.93;11.73;;;12.60;47.40;;;;;;6106550;23;20610;-94
2021/04/30 03:35:25;;;;;;;10.63;9.73;;;12.40;47.00;;;;;;6106359;23;20247;-94
2021/04/30 03:37:50;;;;;;;12.90;11.60;;;12.50;47.10;;;;;;6107328;23;20148;-93
2021/04/30 03:40:28;;;;;;;11.80;10.70;;;12.50;46.90;;;;;;6107097;23;20247;-93
2021/04/30 03:42:54;;;;;;;12.63;11.55;;;12.50;46.70;;;;;;6106698;23;20486;-94
2021/04/30 03:45:20;;;;;;;11.83;10.73;;;12.30;48.00;;;;;;6108057;23;20191;-93
2021/04/30 03:54:43;;;;;;;12.32;11.15;;;12.10;48.60;;;;;;6164664;23;20192;-94
2021/04/30 04:00:31;;;;;;;14.25;12.90;;;11.90;49.20;;;;;;6161347;23;20139;-87
2021/04/30 04:02:58;;;;;;;15.97;14.57;;;11.80;49.30;;;;;;6132433;23;20152;-89
2021/04/30 04:05:24;;;;;;;15.27;13.88;;;12.10;49.70;;;;;;6132171;23;20171;-87
2021/04/30 04:08:09;;;;;;;14.80;13.50;;;12.30;50.00;;;;;;6132135;23;20160;-88
2021/04/30 04:10:36;;;;;;;11.18;10.18;;;12.20;49.60;;;;;;6156866;23;20162;-86
2021/04/30 04:13:36;;;;;;;11.93;10.82;;;12.00;49.00;;;;;;6132218;23;20156;-86
2021/04/30 04:16:03;;;;;;;11.75;10.65;;;12.10;48.90;;;;;;6132314;23;20176;-87
2021/04/30 04:18:57;;;;;;;13.93;12.73;;;12.20;48.30;;;;;;6132335;23;20575;-87
2021/04/30 04:21:23;;;;;;;13.43;12.05;;;12.20;48.30;;;;;;6131896;23;20154;-88
2021/04/30 04:23:49;;;;;;;13.77;12.57;;;12.00;47.90;;;;;;6131261;23;20227;-88
2021/04/30 04:26:15;;;;;;;13.70;12.50;;;11.70;48.30;;;;;;6131154;23;20210;-88
2021/04/30 04:28:40;;;;;;;13.50;12.40;;;11.70;48.30;;;;;;6130990;23;20712;-88
2021/04/30 04:31:06;;;;;;;12.63;11.53;;;11.60;48.20;;;;;;6131351;23;20151;-88
2021/04/30 04:33:32;;;;;;;12.13;10.97;;;12.00;48.20;;;;;;6156643;23;20136;-87
2021/04/30 04:35:58;;;;;;;14.07;12.67;;;12.10;47.80;;;;;;6130237;23;20179;-86
2021/04/30 04:38:26;;;;;;;13.10;11.90;;;11.90;47.40;;;;;;6130459;23;20434;-88
2021/04/30 04:40:52;;;;;;;12.65;11.52;;;11.70;46.60;;;;;;6130854;23;20144;-88
2021/04/30 04:43:17;;;;;;;11.50;10.50;;;11.70;47.10;;;;;;6133485;23;20194;-88
2021/04/30 04:45:43;;;;;;;12.97;11.70;;;11.40;48.10;;;;;;6133856;23;20387;-88
2021/04/30 04:48:09;;;;;;;12.33;10.87;;;11.00;48.20;;;;;;6133796;23;20153;-88
2021/04/30 04:50:36;;;;;;;10.40;9.50;;;11.20;48.80;;;;;;6159126;23;20201;-88
2021/04/30 04:53:01;;;;;;;10.25;9.35;;;11.60;48.40;;;;;;6134041;23;20718;-88
2021/04/30 04:55:27;;;;;;;10.10;9.30;;;11.50;47.70;;;;;;6134088;23;20183;-87
2021/04/30 04:57:53;;;;;;;11.47;10.37;;;11.50;47.10;;;;;;6132725;23;20147;-86
2021/04/30 05:00:19;;;;;;;12.07;10.80;;;12.10;47.20;;;;;;6133260;23;20249;-89
2021/04/30 05:02:45;;;;;;;11.70;10.63;;;12.00;48.40;;;;;;6133383;23;20485;-86
2021/04/30 05:05:12;;;;;;;11.03;10.03;;;11.90;47.50;;;;;;6133620;23;20187;-89
2021/04/30 05:07:38;;;;;;;12.13;11.02;;;12.10;46.90;;;;;;6133333;23;20207;-88
2021/04/30 05:10:04;;;;;;;11.73;10.57;;;12.00;46.80;;;;;;6133481;23;20179;-89
2021/04/30 05:12:30;;;;;;;13.43;12.07;;;11.70;46.90;;;;;;6134059;23;20158;-88
2021/04/30 05:14:56;;;;;;;12.73;11.57;;;11.30;48.10;;;;;;6135456;23;20164;-88
2021/04/30 05:17:22;;;;;;;12.40;11.30;;;11.10;49.40;;;;;;6134442;23;20375;-87
2021/04/30 05:20:09;;;;;;;10.73;9.77;;;11.00;49.50;;;;;;6135171;23;20437;-94
2021/04/30 05:22:35;;;;;;;10.60;9.68;;;11.10;49.00;;;;;;6136065;23;20658;-88
2021/04/30 05:25:01;;;;;;;12.05;11.05;;;11.40;48.40;;;;;;6134829;23;20152;-88
2021/04/30 05:27:27;;;;;;;11.93;10.77;;;11.50;47.20;;;;;;6135919;23;20216;-88
2021/04/30 05:29:55;;;;;;;12.27;11.17;;;11.60;45.90;;;;;;6136510;23;20144;-93
2021/04/30 05:32:21;;;;;;;13.98;12.73;;;12.00;46.20;;;;;;6138201;23;20155;-92
2021/04/30 05:34:49;;;;;;;11.30;10.20;;;11.90;44.10;;;;;;6136667;23;20610;-90
2021/04/30 05:37:14;;;;;;;12.27;10.50;;;12.10;43.10;;;;;;6134533;23;20638;-87
2021/04/30 05:39:40;;;;;;;11.70;10.60;;;11.90;43.30;;;;;;6133955;23;20147;-91
2021/04/30 05:42:06;;;;;;;13.32;12.02;;;12.30;43.30;;;;;;6137366;23;20163;-93
2021/04/30 05:44:32;;;;;;;11.10;10.20;;;11.90;42.90;;;;;;6139626;23;20175;-92
2021/04/30 05:47:17;;;;;;;12.13;10.95;;;12.10;43.60;;;;;;6143032;23;20387;-94
2021/04/30 05:49:43;;;;;;;13.30;12.00;;;12.20;43.60;;;;;;6141001;23;20160;-93
2021/04/30 05:52:11;;;;;;;12.30;11.10;;;12.30;42.80;;;;;;6141539;23;20207;-94
2021/04/30 05:54:37;;;;;;;11.65;10.48;;;12.00;42.90;;;;;;6115250;23;20470;-91
2021/04/30 06:00:25;;;;;;;13.68;12.55;;;12.40;41.60;;;;;;6135842;23;20136;-94
2021/04/30 06:02:54;;;;;;;13.65;12.35;;;12.60;41.50;;;;;;6116923;23;20171;-95
2021/04/30 06:05:20;;;;;;;13.40;11.15;;;12.20;40.60;;;;;;6110004;23;20205;-95
2021/04/30 06:08:39;;;;;;;11.13;10.05;;;12.50;40.70;;;;;;6114512;23;20148;-94
2021/04/30 06:14:30;;;;;;;12.57;11.38;;;13.00;38.80;;;;;;6134381;23;20607;-93
2021/04/30 06:20:18;;;;;;;11.48;10.48;;;13.50;36.10;;;;;;6133929;23;20849;-92
2021/04/30 06:26:06;;;;;;;11.80;9.55;;;13.50;34.80;;;;;;6134950;23;20368;-95
2021/04/30 06:31:56;;;;;;;10.20;9.30;;;13.10;34.10;;;;;;6132830;23;20123;-94
2021/04/30 06:37:44;;;;;;;11.35;10.25;;;13.40;35.00;;;;;;6134847;23;20590;-95
2021/04/30 06:43:33;;;;;;;10.75;9.65;;;13.00;35.00;;;;;;6146832;23;20168;-94
2021/04/30 06:49:24;;;;;;;10.68;9.65;;;13.00;36.20;;;;;;6143258;23;20152;-96
2021/04/30 07:02:56;;;;;;;11.77;10.65;;;12.50;36.60;;;;;;6175404;23;20186;-94
2021/04/30 07:08:47;;;;;;;11.23;10.23;;;12.30;38.10;;;;;;6175889;23;20355;-95
2021/04/30 07:14:35;;;;;;;12.52;11.32;;;12.30;38.70;;;;;;6172472;23;20622;-95
2021/04/30 07:20:28;;;;;;;13.10;9.65;;;12.10;39.30;;;;;;6177186;23;20147;-96
2021/04/30 07:26:16;;;;;;;11.95;10.90;;;12.20;39.40;;;;;;6104324;23;20214;-93
2021/04/30 07:29:36;;;;;;;12.63;11.43;;;12.10;38.90;;;;;;6081167;23;20683;-94
2021/04/30 07:32:03;;;;;;;11.82;10.73;;;12.50;38.50;;;;;;6086228;23;20156;-93
2021/04/30 07:34:29;;;;;;;11.63;10.43;;;12.60;37.70;;;;;;6079908;23;20145;-93
2021/04/30 07:40:16;;;;;;;12.52;11.23;;;12.90;37.60;;;;;;6101517;23;20467;-93
2021/04/30 07:43:19;;;;;;;13.23;11.93;;;12.80;36.80;;;;;;6075696;23;20157;-92
2021/04/30 07:45:45;;;;;;;11.07;10.02;;;12.80;36.10;;;;;;6075456;23;20388;-92
2021/04/30 07:48:30;;;;;;;12.60;11.32;;;12.90;36.10;;;;;;6075520;23;20168;-92
2021/04/30 07:50:59;;;;;;;10.35;9.25;;;13.00;36.40;;;;;;6075312;23;20167;-93
2021/04/30 07:53:26;;;;;;;11.38;10.30;;;12.90;36.30;;;;;;6075726;23;20157;-92
2021/04/30 07:55:52;;;;;;;10.85;9.95;;;12.80;36.40;;;;;;6074938;23;20629;-92
2021/04/30 08:01:39;;;;;;;11.88;10.77;;;12.70;36.10;;;;;;6098539;23;20419;-91
2021/04/30 08:04:08;;;;;;;11.27;9.90;;;12.90;36.10;;;;;;6074817;23;20149;-91
2021/04/30 08:06:34;;;;;;;11.50;10.48;;;13.40;36.30;;;;;;6098042;23;20156;-91
2021/04/30 08:12:25;;;;;;;11.68;10.48;;;13.20;35.00;;;;;;6158547;23;20343;-87
2021/04/30 08:14:51;;;;;;;11.60;10.38;;;13.00;35.20;;;;;;6157050;23;20297;-91
2021/04/30 08:17:17;;;;;;;11.53;10.17;;;13.00;35.20;;;;;;6157332;23;20179;-90
2021/04/30 08:19:42;;;;;;;10.70;9.70;;;13.20;35.30;;;;;;6156603;23;20152;-89
2021/04/30 08:22:45;;;;;;;12.60;11.33;;;13.00;35.10;;;;;;6157426;23;20439;-90
2021/04/30 08:25:12;;;;;;;12.85;11.65;;;12.70;35.20;;;;;;6131511;23;20474;-92
2021/04/30 08:27:38;;;;;;;10.10;9.20;;;12.90;35.80;;;;;;6157917;23;20210;-91
2021/04/30 08:30:11;;;;;;;11.07;10.07;;;13.10;35.20;;;;;;6156321;23;20719;-89
2021/04/30 08:32:36;;;;;;;10.82;9.82;;;13.30;35.40;;;;;;6156598;23;20398;-88
2021/04/30 08:35:22;;;;;;;10.50;9.60;;;13.30;35.50;;;;;;6131008;23;20517;-87
2021/04/30 08:37:48;;;;;;;10.67;9.67;;;13.30;35.40;;;;;;6156402;23;20158;-89
2021/04/30 08:40:42;;;;;;;9.90;8.80;;;13.20;35.60;;;;;;6156463;23;20371;-88
2021/04/30 08:43:08;;;;;;;10.67;9.57;;;13.40;35.20;;;;;;6157140;23;20387;-89
2021/04/30 08:45:38;;;;;;;11.13;10.20;;;13.70;35.80;;;;;;6157477;23;20678;-89
2021/04/30 08:48:26;;;;;;;12.30;11.10;;;13.70;34.40;;;;;;6157381;23;20156;-91
2021/04/30 08:50:54;;;;;;;12.03;10.83;;;13.60;34.10;;;;;;6157870;23;20414;-88
2021/04/30 08:53:27;;;;;;;12.13;10.90;;;14.00;33.80;;;;;;6157041;23;20417;-89
2021/04/30 08:55:53;;;;;;;10.60;9.57;;;14.10;33.10;;;;;;6156713;23;20450;-89
2021/04/30 08:59:10;;;;;;;11.87;10.67;;;14.30;33.50;;;;;;6157375;23;20438;-89
2021/04/30 09:01:36;;;;;;;12.00;11.00;;;14.40;31.40;;;;;;6157548;23;20383;-91
2021/04/30 09:04:50;;;;;;;12.77;11.50;;;14.40;32.30;;;;;;6134421;23;20379;-89
2021/04/30 09:07:20;;;;;;;10.30;9.30;;;14.50;32.20;;;;;;6158251;23;20164;-89
2021/04/30 09:13:14;;;;;;;10.80;9.80;;;14.00;32.50;;;;;;6158561;23;21140;-89
2021/04/30 09:15:42;;;;;;;11.50;10.50;;;14.10;32.40;;;;;;6157789;23;20423;-90
2021/04/30 09:18:28;;;;;;;12.20;10.93;;;14.30;32.70;;;;;;6157949;23;20375;-88
2021/04/30 09:21:11;;;;;;;11.10;10.10;;;14.20;31.60;;;;;;6157604;23;20398;-88
2021/04/30 09:23:42;;;;;;;10.03;9.10;;;14.30;32.30;;;;;;6156470;23;20378;-87
2021/04/30 09:26:35;;;;;;;12.10;11.10;;;14.10;31.20;;;;;;6156822;23;20411;-87
2021/04/30 09:29:01;;;;;;;11.70;10.53;;;13.90;31.80;;;;;;6157116;23;20382;-87
2021/04/30 09:31:44;;;;;;;11.70;10.60;;;13.80;31.90;;;;;;6160626;23;20481;-88
2021/04/30 09:34:14;;;;;;;11.10;10.20;;;13.80;32.30;;;;;;6158202;23;20529;-88
2021/04/30 09:37:17;;;;;;;11.53;10.40;;;13.70;32.60;;;;;;6159705;23;20427;-87
2021/04/30 09:40:00;;;;;;;9.57;8.77;;;13.40;32.50;;;;;;6158271;23;20375;-88
2021/04/30 09:42:40;;;;;;;9.77;8.87;;;13.40;33.50;;;;;;6158218;23;20533;-87
2021/04/30 09:45:09;;;;;;;10.77;9.67;;;13.50;33.10;;;;;;6158343;23;20535;-87
2021/04/30 09:47:36;;;;;;;10.10;9.30;;;13.80;32.30;;;;;;6158768;23;20715;-87
2021/04/30 09:53:17;;;;;;;10.23;9.40;;;14.00;32.60;;;;;;6159763;23;20390;-87
2021/04/30 09:55:44;;;;;;;10.13;9.23;;;14.50;32.10;;;;;;6158345;23;20447;-88
2021/04/30 09:58:43;;;;;;;9.73;9.00;;;14.10;31.60;;;;;;6158625;23;20753;-89
2021/04/30 10:01:44;;;;;;;10.60;9.50;;;14.80;31.00;;;;;;6158927;23;20407;-89
2021/04/30 10:04:28;;;;;;;11.00;9.90;;;14.30;31.60;;;;;;6157770;23;20379;-88
2021/04/30 10:06:54;;;;;;;10.10;9.23;;;14.20;31.70;;;;;;6158162;23;20393;-89
2021/04/30 10:09:27;;;;;;;10.87;9.87;;;14.40;31.00;;;;;;6157511;23;20418;-88
2021/04/30 10:11:53;;;;;;;7.77;7.07;;;14.40;30.80;;;;;;6158696;23;20607;-86
2021/04/30 10:14:51;;;;;;;8.90;8.13;;;14.90;31.40;;;;;;6157980;23;20387;-89
2021/04/30 10:17:18;;;;;;;9.47;8.60;;;15.10;30.60;;;;;;6158406;23;20215;-89
2021/04/30 10:19:51;;;;;;;10.90;10.00;;;15.10;29.60;;;;;;6157439;23;21028;-89
2021/04/30 10:22:20;;;;;;;10.73;9.50;;;15.10;29.60;;;;;;6157803;23;20596;-89
2021/04/30 10:25:07;;;;;;;9.77;8.97;;;15.20;29.80;;;;;;6157823;23;20855;-88
2021/04/30 10:27:35;;;;;;;11.80;10.70;;;14.70;29.80;;;;;;6157318;23;20387;-88
2021/04/30 10:30:55;;;;;;;10.80;9.33;;;15.10;30.80;;;;;;6161668;23;20384;-88
2021/04/30 10:33:43;;;;;;;10.87;9.90;;;14.60;30.50;;;;;;6163437;23;20389;-88
2021/04/30 10:36:21;;;;;;;10.33;9.33;;;14.50;31.50;;;;;;6160096;23;20431;-88
2021/04/30 10:38:55;;;;;;;11.83;10.93;;;14.50;31.60;;;;;;6158026;23;20383;-88
2021/04/30 10:41:29;;;;;;;10.80;9.80;;;13.90;33.80;;;;;;6157825;23;20383;-88
2021/04/30 10:44:21;;;;;;;12.10;11.00;;;14.10;34.40;;;;;;6157928;23;20411;-88
2021/04/30 10:46:50;;;;;;;11.20;10.20;;;13.90;36.20;;;;;;6158375;23;20415;-88
2021/04/30 10:49:21;;;;;;;11.93;10.20;;;13.60;34.90;;;;;;6158117;23;20422;-87
2021/04/30 10:52:05;;;;;;;12.50;10.50;;;13.60;36.40;;;;;;6158248;23;20893;-87
2021/04/30 10:55:01;;;;;;;12.70;11.50;;;13.90;37.50;;;;;;6154105;23;20410;-87
2021/04/30 10:57:27;;;;;;;10.70;9.70;;;13.50;37.00;;;;;;6103211;23;20882;-87
2021/04/30 11:00:06;;;;;;;11.67;10.57;;;13.30;38.20;;;;;;6103167;23;20404;-89
2021/04/30 11:02:33;;;;;;;12.00;10.80;;;13.30;38.30;;;;;;6104007;23;20470;-88
2021/04/30 11:05:14;;;;;;;12.87;11.67;;;13.30;39.50;;;;;;6103450;23;20156;-88
2021/04/30 11:07:45;;;;;;;11.43;10.33;;;13.20;38.60;;;;;;6103967;23;20476;-89
2021/04/30 11:11:06;;;;;;;14.05;12.75;;;13.10;38.70;;;;;;6103567;23;20847;-89
2021/04/30 11:13:32;;;;;;;11.80;10.67;;;13.00;39.70;;;;;;6103928;23;20145;-89
2021/04/30 11:19:58;;;;;;;12.60;11.40;;;13.50;40.30;;;;;;6129615;23;20187;-88
2021/04/30 11:22:24;;;;;;;12.83;11.63;;;13.30;39.80;;;;;;6104429;23;20524;-89
2021/04/30 11:25:13;;;;;;;12.87;11.60;;;13.70;40.30;;;;;;6103490;23;20404;-88
2021/04/30 11:27:39;;;;;;;13.67;11.20;;;13.60;41.20;;;;;;6102568;23;20156;-88
2021/04/30 11:30:15;;;;;;;15.23;13.90;;;13.40;40.70;;;;;;6105280;23;20862;-88
2021/04/30 11:32:55;;;;;;;15.77;14.27;;;13.40;41.40;;;;;;6103217;23;20584;-88
2021/04/30 11:35:22;;;;;;;14.60;13.23;;;13.30;40.20;;;;;;6102373;23;20148;-88
2021/04/30 11:37:48;;;;;;;15.30;13.90;;;13.30;41.80;;;;;;6104218;23;20844;-92
2021/04/30 11:40:17;;;;;;;15.60;14.20;;;12.80;41.40;;;;;;6103019;23;20163;-90
2021/04/30 11:42:43;;;;;;;15.68;14.18;;;12.70;43.90;;;;;;6102738;23;20148;-89
2021/04/30 11:45:23;;;;;;;17.20;15.40;;;12.90;44.20;;;;;;6103414;23;20486;-89
2021/04/30 11:47:49;;;;;;;15.23;13.68;;;12.80;44.10;;;;;;6103463;23;20148;-90
2021/04/30 11:50:22;;;;;;;15.57;14.13;;;12.60;44.20;;;;;;6103721;23;20897;-89
2021/04/30 11:52:47;;;;;;;18.33;14.75;;;12.70;41.40;;;;;;6102724;23;20224;-88
2021/04/30 11:55:21;;;;;;;18.73;15.87;;;12.70;42.60;;;;;;6108864;23;21110;-88
2021/04/30 11:58:08;;;;;;;17.15;15.55;;;12.70;43.40;;;;;;6132255;23;20661;-88
2021/04/30 12:00:33;;;;;;;17.55;15.85;;;12.10;43.60;;;;;;6132445;23;20218;-88
2021/04/30 12:03:41;;;;;;;14.97;13.50;;;12.10;44.90;;;;;;6132551;23;20156;-87
2021/04/30 12:06:13;;;;;;;17.17;15.48;;;12.00;44.90;;;;;;6133291;23;20179;-88
2021/04/30 12:08:40;;;;;;;14.90;13.30;;;12.50;44.70;;;;;;6132964;23;20460;-87
2021/04/30 12:14:28;;;;;;;17.33;15.52;;;12.00;45.10;;;;;;6157992;23;20594;-89
2021/04/30 12:16:58;;;;;;;17.17;15.48;;;11.40;46.00;;;;;;6132548;23;20542;-90
2021/04/30 12:19:34;;;;;;;16.55;14.95;;;11.30;46.60;;;;;;6133504;23;20184;-89
2021/04/30 12:21:59;;;;;;;14.07;12.77;;;11.60;46.90;;;;;;6133688;23;20179;-90
2021/04/30 12:24:25;;;;;;;16.53;14.83;;;11.70;45.60;;;;;;6158961;23;20139;-89
2021/04/30 12:27:04;;;;;;;15.43;13.93;;;11.80;44.70;;;;;;6132116;23;20147;-88
2021/04/30 12:29:31;;;;;;;16.17;14.73;;;12.10;44.20;;;;;;6132833;23;20586;-90
2021/04/30 12:31:56;;;;;;;15.10;13.63;;;12.00;44.40;;;;;;6133670;23;20507;-89
2021/04/30 12:34:36;;;;;;;15.47;13.97;;;11.50;43.50;;;;;;6132344;23;20179;-89
2021/04/30 12:37:02;;;;;;;14.88;13.48;;;11.40;45.40;;;;;;6132142;23;20514;-90
2021/04/30 12:39:33;;;;;;;19.60;14.80;;;11.60;46.70;;;;;;6132400;23;20183;-89
2021/04/30 12:42:01;;;;;;;14.27;12.90;;;11.30;45.50;;;;;;6132061;23;20639;-89
2021/04/30 12:44:28;;;;;;;16.15;14.75;;;11.50;46.90;;;;;;6131055;23;20863;-90
2021/04/30 12:46:54;;;;;;;15.05;13.65;;;11.40;45.40;;;;;;6132415;23;20158;-90
2021/04/30 12:49:23;;;;;;;15.30;13.90;;;11.40;44.30;;;;;;6131714;23;21069;-90
2021/04/30 12:51:54;;;;;;;15.13;13.73;;;11.50;45.70;;;;;;6133757;23;20154;-89
2021/04/30 12:54:41;;;;;;;13.18;11.98;;;11.40;45.90;;;;;;6133138;23;20147;-88
2021/04/30 12:57:09;;;;;;;13.60;12.30;;;11.90;46.30;;;;;;6131764;23;20674;-85
2021/04/30 12:59:36;;;;;;;14.68;13.27;;;11.90;46.10;;;;;;6132247;23;20243;-88
2021/04/30 13:02:15;;;;;;;14.20;12.80;;;11.80;43.70;;;;;;6132796;23;20151;-89
2021/04/30 13:04:45;;;;;;;13.75;12.45;;;11.60;44.30;;;;;;6134270;23;20182;-90
2021/04/30 13:07:22;;;;;;;12.55;11.32;;;11.40;45.00;;;;;;6134255;23;20159;-87
2021/04/30 13:09:48;;;;;;;11.40;10.38;;;11.90;44.10;;;;;;6134317;23;20579;-87
2021/04/30 13:12:33;;;;;;;15.90;11.23;;;11.80;44.60;;;;;;6135046;23;20163;-88
2021/04/30 13:14:59;;;;;;;13.90;12.68;;;11.90;44.60;;;;;;6134542;23;20191;-87
2021/04/30 13:17:33;;;;;;;12.97;11.77;;;11.80;45.20;;;;;;6134848;23;20496;-88
2021/04/30 13:20:17;;;;;;;14.07;12.70;;;12.10;45.60;;;;;;6136050;23;20222;-88
2021/04/30 13:22:43;;;;;;;14.68;13.15;;;11.70;44.30;;;;;;6132294;23;20151;-88
2021/04/30 13:25:14;;;;;;;12.50;11.30;;;12.00;44.20;;;;;;6134234;23;20158;-88
2021/04/30 13:28:11;;;;;;;15.90;14.38;;;11.90;44.60;;;;;;6134532;23;20391;-88
2021/04/30 13:30:42;;;;;;;13.75;12.52;;;12.20;44.70;;;;;;6134130;23;20214;-88
2021/04/30 13:33:24;;;;;;;14.27;12.90;;;12.30;43.90;;;;;;6133918;23;20179;-88
2021/04/30 13:35:52;;;;;;;13.20;12.00;;;12.20;43.30;;;;;;6134021;23;20180;-88
2021/04/30 13:38:47;;;;;;;47.08;36.90;;;12.30;43.70;;;;;;6133651;23;20387;-88
2021/04/30 13:41:16;;;;;;;17.90;16.17;;;12.50;44.40;;;;;;6134266;23;20203;-88
2021/04/30 13:43:42;;;;;;;15.25;13.85;;;12.20;42.80;;;;;;6133755;23;20560;-88
2021/04/30 13:46:10;;;;;;;14.50;13.18;;;12.10;44.80;;;;;;6134061;23;20748;-88
2021/04/30 13:48:58;;;;;;;14.15;12.65;;;12.20;44.80;;;;;;6133583;23;20152;-87
2021/04/30 13:51:23;;;;;;;12.90;11.68;;;11.90;45.80;;;;;;6133135;23;20160;-87
2021/04/30 13:54:06;;;;;;;14.77;13.20;;;11.80;46.00;;;;;;6133806;23;20154;-87
2021/04/30 13:56:34;;;;;;;14.85;13.40;;;11.80;46.20;;;;;;6133254;23;20206;-88
2021/04/30 13:59:05;;;;;;;12.70;11.50;;;11.80;47.00;;;;;;6134150;23;20612;-87
2021/04/30 14:01:47;;;;;;;16.25;14.75;;;11.90;47.40;;;;;;6133891;23;20489;-87
2021/04/30 14:04:12;;;;;;;15.07;13.65;;;11.70;47.80;;;;;;6133851;23;20146;-87
2021/04/30 14:06:59;;;;;;;12.47;11.37;;;11.60;47.60;;;;;;6159275;23;20167;-88
2021/04/30 14:09:28;;;;;;;15.15;13.73;;;11.80;47.60;;;;;;6135714;23;20235;-89
2021/04/30 14:11:54;;;;;;;10.85;9.75;;;11.90;47.40;;;;;;6135172;23;20159;-87
2021/04/30 14:14:21;;;;;;;12.10;11.00;;;11.90;45.60;;;;;;6134116;23;20163;-89
2021/04/30 14:17:25;;;;;;;12.00;10.93;;;11.90;46.20;;;;;;6134874;23;20183;-88
2021/04/30 14:19:51;;;;;;;10.20;9.30;;;12.20;46.00;;;;;;6134216;23;20226;-87
2021/04/30 14:22:29;;;;;;;12.67;11.47;;;12.30;45.90;;;;;;6135307;23;20696;-90
2021/04/30 14:24:55;;;;;;;10.60;9.65;;;12.20;45.60;;;;;;6133905;23;20171;-88
2021/04/30 14:27:29;;;;;;;12.73;11.50;;;12.30;44.60;;;;;;6133288;23;20148;-87
2021/04/30 14:29:55;;;;;;;12.50;11.40;;;11.70;44.30;;;;;;6159362;23;20142;-88